createdAt,value
2022-08-11T00:00:00.437Z,20.50
2022-08-11T00:02:35.103Z,20.56
2022-08-11T00:05:08.222Z,20.60
2022-08-11T00:07:43.458Z,20.58
2022-08-11T00:10:14.018Z,20.56
2022-08-11T00:12:43.830Z,20.52
2022-08-11T00:15:13.818Z,20.51
2022-08-11T00:17:44.865Z,20.51
2022-08-11T00:20:16.707Z,20.48
2022-08-11T00:22:46.814Z,20.27
2022-08-11T00:25:17.992Z,20.41
2022-08-11T00:27:47.911Z,20.45
2022-08-11T00:30:16.968Z,20.44
2022-08-11T00:32:54.905Z,20.44
2022-08-11T00:35:54.983Z,20.42
2022-08-11T00:38:17.796Z,20.40
2022-08-11T00:40:54.786Z,20.45
2022-08-11T00:43:33.551Z,20.42
2022-08-11T00:46:13.723Z,20.39
2022-08-11T00:49:00.544Z,20.37
2022-08-11T00:52:04.217Z,20.39
2022-08-11T00:55:04.343Z,20.43
2022-08-11T00:58:12.670Z,20.50
2022-08-11T01:01:04.160Z,20.55
2022-08-11T01:03:55.770Z,20.58
2022-08-11T01:06:46.750Z,20.61
2022-08-11T01:09:39.852Z,20.59
2022-08-11T01:12:22.588Z,20.53
2022-08-11T01:15:23.071Z,20.53
2022-08-11T01:18:21.491Z,20.51
2022-08-11T01:21:36.166Z,20.56
2022-08-11T01:24:37.717Z,20.57
2022-08-11T01:27:23.262Z,20.59
2022-08-11T01:30:24.786Z,20.57
2022-08-11T01:33:25.497Z,20.50
2022-08-11T01:36:39.427Z,20.44
2022-08-11T01:39:34.109Z,20.39
2022-08-11T01:43:15.291Z,20.33
2022-08-11T01:45:50.007Z,20.33
2022-08-11T01:48:26.906Z,20.32
2022-08-11T01:51:30.259Z,20.25
2022-08-11T01:54:05.757Z,20.25
2022-08-11T01:56:50.790Z,20.23
2022-08-11T01:59:23.430Z,20.20
2022-08-11T02:02:45.964Z,20.14
2022-08-11T02:05:31.310Z,20.06
2022-08-11T02:08:12.738Z,20.07
2022-08-11T02:11:06.311Z,20.04
2022-08-11T02:13:43.426Z,20.02
2022-08-11T02:16:27.588Z,20.01
2022-08-11T02:19:28.346Z,19.94
2022-08-11T02:22:33.772Z,19.90
2022-08-11T02:25:06.836Z,19.86
2022-08-11T02:27:42.947Z,19.86
2022-08-11T02:30:15.685Z,19.87
2022-08-11T02:33:09.753Z,19.86
2022-08-11T02:35:47.904Z,19.84
2022-08-11T02:38:26.699Z,19.84
2022-08-11T02:41:03.970Z,19.83
2022-08-11T02:43:47.306Z,19.82
2022-08-11T02:46:28.234Z,19.81
2022-08-11T02:49:24.381Z,19.78
2022-08-11T02:52:05.083Z,19.72
2022-08-11T02:54:40.177Z,19.70
2022-08-11T02:57:20.904Z,19.67
2022-08-11T02:59:54.816Z,19.68
2022-08-11T03:02:45.975Z,19.63
2022-08-11T03:05:24.124Z,19.64
2022-08-11T03:08:15.469Z,19.62
2022-08-11T03:11:10.518Z,19.62
2022-08-11T03:14:04.838Z,19.53
2022-08-11T03:16:48.508Z,19.47
2022-08-11T03:19:38.112Z,19.42
2022-08-11T03:22:14.555Z,19.40
2022-08-11T03:24:55.978Z,19.35
2022-08-11T03:27:44.676Z,19.30
2022-08-11T03:30:18.240Z,19.26
2022-08-11T03:33:17.318Z,19.24
2022-08-11T03:35:55.836Z,19.23
2022-08-11T03:38:30.599Z,19.23
2022-08-11T03:42:03.368Z,19.22
2022-08-11T03:44:32.839Z,19.22
2022-08-11T03:47:27.701Z,19.23
2022-08-11T03:50:04.820Z,19.21
2022-08-11T03:52:50.981Z,19.18
2022-08-11T03:55:29.655Z,19.20
2022-08-11T03:58:31.930Z,19.19
2022-08-11T04:01:42.833Z,19.16
2022-08-11T04:04:39.382Z,19.17
2022-08-11T04:08:05.557Z,19.12
2022-08-11T04:10:51.961Z,19.13
2022-08-11T04:13:42.453Z,19.11
2022-08-11T04:16:33.424Z,19.15
2022-08-11T04:19:47.221Z,19.10
2022-08-11T04:22:55.801Z,19.06
2022-08-11T04:25:58.949Z,19.00
2022-08-11T04:28:56.185Z,19.00
2022-08-11T04:31:52.735Z,18.97
2022-08-11T04:35:03.048Z,18.91
2022-08-11T04:38:07.517Z,18.88
2022-08-11T04:41:31.089Z,18.86
2022-08-11T04:44:50.299Z,18.80
2022-08-11T04:48:04.616Z,18.82
2022-08-11T04:51:16.425Z,18.83
2022-08-11T04:54:13.888Z,18.80
2022-08-11T04:57:03.789Z,18.78
2022-08-11T05:00:11.715Z,18.82
2022-08-11T05:03:36.576Z,18.84
2022-08-11T05:06:52.483Z,18.84
2022-08-11T05:09:35.815Z,18.90
2022-08-11T05:12:14.821Z,18.92
2022-08-11T05:15:08.387Z,18.94
2022-08-11T05:17:59.608Z,18.97
2022-08-11T05:20:46.049Z,18.98
2022-08-11T05:23:33.586Z,19.02
2022-08-11T05:26:46.735Z,19.06
2022-08-11T05:29:45.452Z,18.97
2022-08-11T05:32:34.521Z,18.97
2022-08-11T05:35:07.640Z,18.92
2022-08-11T05:37:57.302Z,18.91
2022-08-11T05:40:43.569Z,18.88
2022-08-11T05:44:20.532Z,18.87
2022-08-11T05:46:48.889Z,18.93
2022-08-11T05:49:34.525Z,18.89
2022-08-11T05:52:25.518Z,18.94
2022-08-11T05:55:22.335Z,19.45
2022-08-11T05:57:56.052Z,20.89
2022-08-11T06:00:26.616Z,22.05
2022-08-11T06:02:59.306Z,22.95
2022-08-11T06:05:38.560Z,23.70
2022-08-11T06:08:13.859Z,24.38
2022-08-11T06:10:44.321Z,24.81
2022-08-11T06:13:17.566Z,25.36
2022-08-11T06:15:48.763Z,25.88
2022-08-11T06:18:17.794Z,26.47
2022-08-11T06:20:49.109Z,26.95
2022-08-11T06:23:20.548Z,27.28
2022-08-11T06:25:49.653Z,27.84
2022-08-11T06:28:21.374Z,28.34
2022-08-11T06:30:52.139Z,29.01
2022-08-11T06:33:30.799Z,29.73
2022-08-11T06:36:06.863Z,30.22
2022-08-11T06:38:57.997Z,30.34
2022-08-11T06:41:31.879Z,29.97
2022-08-11T06:44:17.861Z,29.92
2022-08-11T06:46:50.965Z,30.06
2022-08-11T06:49:54.251Z,30.23
2022-08-11T06:52:32.008Z,30.46
2022-08-11T06:55:55.979Z,30.92
2022-08-11T06:58:19.979Z,31.34
2022-08-11T07:00:50.980Z,31.86
2022-08-11T07:03:38.405Z,32.47
2022-08-11T07:06:20.678Z,33.32
2022-08-11T07:09:33.733Z,34.06
2022-08-11T07:12:39.013Z,34.58
2022-08-11T07:16:11.243Z,34.84
2022-08-11T07:18:41.364Z,34.98
2022-08-11T07:22:01.794Z,35.19
2022-08-11T07:24:59.793Z,35.40
2022-08-11T07:27:55.280Z,35.60
2022-08-11T07:30:25.775Z,35.52
2022-08-11T07:32:57.041Z,35.55
2022-08-11T07:35:33.241Z,35.47
2022-08-11T07:38:07.278Z,35.76
2022-08-11T07:40:37.565Z,36.28
2022-08-11T07:43:07.712Z,36.53
2022-08-11T07:45:54.414Z,36.81
2022-08-11T07:48:40.527Z,37.24
2022-08-11T07:51:28.448Z,37.78
2022-08-11T07:53:58.406Z,37.43
2022-08-11T07:56:55.522Z,37.69
2022-08-11T08:00:00.190Z,38.07
2022-08-11T08:02:58.160Z,37.90
2022-08-11T08:05:44.490Z,37.73
2022-08-11T08:08:34.733Z,37.79
2022-08-11T08:11:27.132Z,38.04
2022-08-11T08:14:14.035Z,37.93
2022-08-11T08:17:00.932Z,37.50
2022-08-11T08:19:30.520Z,37.41
2022-08-11T08:22:37.341Z,37.07
2022-08-11T08:24:50.460Z,36.87
2022-08-11T08:27:20.030Z,37.12
2022-08-11T08:30:06.456Z,37.61
2022-08-11T08:32:36.316Z,37.58
2022-08-11T08:35:06.872Z,37.18
2022-08-11T08:37:46.748Z,37.16
2022-08-11T08:40:17.544Z,37.45
2022-08-11T08:42:53.657Z,37.38
2022-08-11T08:45:23.459Z,37.52
2022-08-11T08:47:58.985Z,37.70
2022-08-11T08:50:49.534Z,37.46
2022-08-11T08:53:24.460Z,37.60
2022-08-11T08:55:56.869Z,37.73
2022-08-11T08:58:26.175Z,38.01
2022-08-11T09:00:56.315Z,37.91
2022-08-11T09:04:06.581Z,38.34
2022-08-11T09:06:17.304Z,38.34
2022-08-11T09:08:45.946Z,38.57
2022-08-11T09:11:33.950Z,38.58
2022-08-11T09:14:05.753Z,38.84
2022-08-11T09:16:36.110Z,39.18
2022-08-11T09:19:05.046Z,39.13
2022-08-11T09:21:39.242Z,39.11
2022-08-11T09:24:36.412Z,39.36
2022-08-11T09:27:08.631Z,39.44
2022-08-11T09:29:39.605Z,39.24
2022-08-11T09:32:08.967Z,39.33
2022-08-11T09:34:40.037Z,39.03
2022-08-11T09:37:53.719Z,39.58
2022-08-11T09:40:33.785Z,39.75
2022-08-11T09:43:24.619Z,39.15
2022-08-11T09:45:54.620Z,39.11
2022-08-11T09:48:24.761Z,39.10
2022-08-11T09:50:55.738Z,38.96
2022-08-11T09:53:37.319Z,39.12
2022-08-11T09:56:31.086Z,39.02
2022-08-11T09:59:02.542Z,39.18
2022-08-11T10:01:33.362Z,39.28
2022-08-11T10:04:05.345Z,38.71
2022-08-11T10:06:55.625Z,38.62
2022-08-11T10:09:26.487Z,38.06
2022-08-11T10:11:59.353Z,37.92
2022-08-11T10:14:49.208Z,37.71
2022-08-11T10:17:21.780Z,37.34
2022-08-11T10:20:05.506Z,36.90
2022-08-11T10:22:53.544Z,36.62
2022-08-11T10:25:40.596Z,36.14
2022-08-11T10:28:28.866Z,36.03
2022-08-11T10:31:18.850Z,35.81
2022-08-11T10:34:04.155Z,35.61
2022-08-11T10:36:34.438Z,35.59
2022-08-11T10:39:05.546Z,35.74
2022-08-11T10:42:07.570Z,35.96
2022-08-11T10:44:40.262Z,36.06
2022-08-11T10:47:31.241Z,36.26
2022-08-11T10:50:18.011Z,36.57
2022-08-11T10:53:07.736Z,36.51
2022-08-11T10:55:58.786Z,36.26
2022-08-11T10:58:44.741Z,36.46
2022-08-11T11:01:14.860Z,36.69
2022-08-11T11:03:45.813Z,36.91
2022-08-11T11:06:29.441Z,36.91
2022-08-11T11:09:04.568Z,36.70
2022-08-11T11:11:56.206Z,36.46
2022-08-11T11:14:50.711Z,35.92
2022-08-11T11:17:46.412Z,36.29
2022-08-11T11:20:36.545Z,36.42
2022-08-11T11:23:11.481Z,35.85
2022-08-11T11:26:14.980Z,36.01
2022-08-11T11:29:15.244Z,36.65
2022-08-11T11:32:11.030Z,36.84
2022-08-11T11:34:58.392Z,37.18
2022-08-11T11:37:31.637Z,37.15
2022-08-11T11:40:10.423Z,36.97
2022-08-11T11:42:40.474Z,37.03
2022-08-11T11:45:10.693Z,37.08
2022-08-11T11:47:53.909Z,37.35
2022-08-11T11:50:31.713Z,37.34
2022-08-11T11:53:05.148Z,37.23
2022-08-11T11:55:34.101Z,37.01
2022-08-11T11:58:22.208Z,36.67
2022-08-11T12:01:09.893Z,36.79
2022-08-11T12:03:39.701Z,36.20
2022-08-11T12:06:12.227Z,36.24
2022-08-11T12:08:43.966Z,36.48
2022-08-11T12:11:31.648Z,36.61
2022-08-11T12:14:04.682Z,36.75
2022-08-11T12:16:40.695Z,36.96
2022-08-11T12:19:12.930Z,37.05
2022-08-11T12:22:04.151Z,36.81
2022-08-11T12:24:52.604Z,36.65
2022-08-11T12:27:25.054Z,36.43
2022-08-11T12:29:56.665Z,36.20
2022-08-11T12:32:28.487Z,36.28
2022-08-11T12:34:58.111Z,36.38
2022-08-11T12:37:31.489Z,36.48
2022-08-11T12:40:42.802Z,36.35
2022-08-11T12:43:38.109Z,36.35
2022-08-11T12:46:10.445Z,36.37
2022-08-11T12:49:03.261Z,36.32
2022-08-11T12:52:12.110Z,35.91
2022-08-11T12:54:51.765Z,36.01
2022-08-11T12:57:47.233Z,35.97
2022-08-11T13:00:34.446Z,35.65
2022-08-11T13:03:21.117Z,35.70
2022-08-11T13:05:53.315Z,35.82
2022-08-11T13:08:25.322Z,35.88
2022-08-11T13:11:13.473Z,35.85
2022-08-11T13:13:53.886Z,35.96
2022-08-11T13:16:26.577Z,35.89
2022-08-11T13:18:55.530Z,36.03
2022-08-11T13:21:24.496Z,36.03
2022-08-11T13:24:01.233Z,35.98
2022-08-11T13:26:47.136Z,35.95
2022-08-11T13:29:20.379Z,36.00
2022-08-11T13:31:49.854Z,35.99
2022-08-11T13:34:19.753Z,36.03
2022-08-11T13:36:50.570Z,36.06
2022-08-11T13:39:19.544Z,36.15
2022-08-11T13:41:50.579Z,36.25
2022-08-11T13:44:25.608Z,36.19
2022-08-11T13:46:55.701Z,36.14
2022-08-11T13:49:24.650Z,36.08
2022-08-11T13:51:54.267Z,35.98
2022-08-11T13:54:25.134Z,36.01
2022-08-11T13:56:56.152Z,35.86
2022-08-11T13:59:30.240Z,35.82
2022-08-11T14:02:21.606Z,35.79
2022-08-11T14:04:57.182Z,35.76
2022-08-11T14:07:27.492Z,35.81
2022-08-11T14:10:00.341Z,35.85
2022-08-11T14:12:50.554Z,35.88
2022-08-11T14:15:25.151Z,35.77
2022-08-11T14:17:57.352Z,35.69
2022-08-11T14:20:45.864Z,35.58
2022-08-11T14:23:15.227Z,35.54
2022-08-11T14:26:04.885Z,35.44
2022-08-11T14:28:44.423Z,35.45
2022-08-11T14:31:16.550Z,35.45
2022-08-11T14:34:00.288Z,35.23
2022-08-11T14:36:37.197Z,35.23
2022-08-11T14:39:13.314Z,35.21
2022-08-11T14:42:12.086Z,35.16
2022-08-11T14:45:01.415Z,35.10
2022-08-11T14:47:33.905Z,35.09
2022-08-11T14:50:11.668Z,35.08
2022-08-11T14:52:47.035Z,34.86
2022-08-11T14:55:34.181Z,34.87
2022-08-11T14:58:03.689Z,34.79
2022-08-11T15:00:34.260Z,34.77
2022-08-11T15:03:11.176Z,34.49
2022-08-11T15:06:00.241Z,34.19
2022-08-11T15:08:48.815Z,34.09
2022-08-11T15:11:36.586Z,34.17
2022-08-11T15:14:08.097Z,34.36
2022-08-11T15:16:55.774Z,34.46
2022-08-11T15:19:40.520Z,34.49
2022-08-11T15:22:28.472Z,34.36
2022-08-11T15:24:58.704Z,34.19
2022-08-11T15:27:44.911Z,34.20
2022-08-11T15:30:33.324Z,33.89
2022-08-11T15:33:24.739Z,33.52
2022-08-11T15:36:14.445Z,33.52
2022-08-11T15:38:45.715Z,33.66
2022-08-11T15:41:36.892Z,33.55
2022-08-11T15:44:59.072Z,33.36
2022-08-11T15:47:20.748Z,33.34
2022-08-11T15:50:11.882Z,33.42
2022-08-11T15:52:49.345Z,33.45
2022-08-11T15:55:18.511Z,33.38
2022-08-11T15:58:07.854Z,33.31
2022-08-11T16:01:02.674Z,33.24
2022-08-11T16:04:07.239Z,33.09
2022-08-11T16:06:42.788Z,33.04
2022-08-11T16:09:21.901Z,32.95
2022-08-11T16:11:52.625Z,32.90
2022-08-11T16:14:39.490Z,32.94
2022-08-11T16:17:09.480Z,32.81
2022-08-11T16:19:38.585Z,32.85
2022-08-11T16:22:10.289Z,32.76
2022-08-11T16:27:02.157Z,32.67
2022-08-11T16:27:36.517Z,32.62
2022-08-11T16:30:06.947Z,32.62
2022-08-11T16:32:37.947Z,32.56
2022-08-11T16:35:28.073Z,32.52
2022-08-11T16:38:15.524Z,32.46
2022-08-11T16:40:46.193Z,32.39
2022-08-11T16:43:36.132Z,32.35
2022-08-11T16:46:35.257Z,32.35
2022-08-11T16:49:06.468Z,32.30
2022-08-11T16:51:34.733Z,32.21
2022-08-11T16:54:05.700Z,32.19
2022-08-11T16:56:38.346Z,31.87
2022-08-11T16:59:16.570Z,31.85
2022-08-11T17:01:53.502Z,31.75
2022-08-11T17:04:56.869Z,31.61
2022-08-11T17:07:44.797Z,31.54
2022-08-11T17:10:50.806Z,31.37
2022-08-11T17:13:25.382Z,31.34
2022-08-11T17:16:12.104Z,31.24
2022-08-11T17:18:48.384Z,31.07
2022-08-11T17:21:20.678Z,30.92
2022-08-11T17:23:52.167Z,30.81
2022-08-11T17:26:24.383Z,30.67
2022-08-11T17:28:58.935Z,30.56
2022-08-11T17:31:47.466Z,30.48
2022-08-11T17:34:33.813Z,30.30
2022-08-11T17:37:02.708Z,30.17
2022-08-11T17:39:32.795Z,30.11
2022-08-11T17:42:19.658Z,30.02
2022-08-11T17:45:09.170Z,29.94
2022-08-11T17:47:56.254Z,29.89
2022-08-11T17:50:24.840Z,29.80
2022-08-11T17:53:11.185Z,29.74
2022-08-11T17:55:58.728Z,29.67
2022-08-11T17:58:45.647Z,29.55
2022-08-11T18:01:16.871Z,29.46
2022-08-11T18:03:56.331Z,29.41
2022-08-11T18:06:32.585Z,29.39
2022-08-11T18:09:22.756Z,29.31
2022-08-11T18:12:12.149Z,29.19
2022-08-11T18:15:00.675Z,29.11
2022-08-11T18:17:48.197Z,29.08
2022-08-11T18:20:34.271Z,28.99
2022-08-11T18:23:40.386Z,28.91
2022-08-11T18:26:32.044Z,28.80
2022-08-11T18:29:19.053Z,28.73
2022-08-11T18:32:08.866Z,28.62
2022-08-11T18:35:00.335Z,28.49
2022-08-11T18:37:51.437Z,28.34
2022-08-11T18:40:40.472Z,28.20
2022-08-11T18:43:28.638Z,28.09
2022-08-11T18:46:19.803Z,28.02
2022-08-11T18:49:15.534Z,27.88
2022-08-11T18:52:05.986Z,27.67
2022-08-11T18:54:55.418Z,27.50
2022-08-11T18:57:49.390Z,27.44
2022-08-11T19:00:37.972Z,27.35
2022-08-11T19:03:25.611Z,27.22
2022-08-11T19:06:39.079Z,27.11
2022-08-11T19:09:24.040Z,27.04
2022-08-11T19:12:11.262Z,27.00
2022-08-11T19:14:59.796Z,26.91
2022-08-11T19:17:48.288Z,26.78
2022-08-11T19:20:38.443Z,26.68
2022-08-11T19:23:27.802Z,26.55
2022-08-11T19:26:16.455Z,26.44
2022-08-11T19:29:05.234Z,26.32
2022-08-11T19:31:52.780Z,26.22
2022-08-11T19:34:40.920Z,26.12
2022-08-11T19:37:28.796Z,26.04
2022-08-11T19:40:17.982Z,25.94
2022-08-11T19:43:14.762Z,25.87
2022-08-11T19:46:13.635Z,25.77
2022-08-11T19:49:02.352Z,25.63
2022-08-11T19:51:53.440Z,25.55
2022-08-11T19:54:44.544Z,25.49
2022-08-11T19:57:35.906Z,25.44
2022-08-11T20:00:30.500Z,25.32
2022-08-11T20:03:17.027Z,25.23
2022-08-11T20:06:04.382Z,25.11
2022-08-11T20:08:55.010Z,25.05
2022-08-11T20:11:45.417Z,24.97
2022-08-11T20:14:32.554Z,24.86
2022-08-11T20:17:21.267Z,24.78
2022-08-11T20:20:08.009Z,24.78
2022-08-11T20:22:53.929Z,24.74
2022-08-11T20:25:42.314Z,24.69
2022-08-11T20:28:29.663Z,24.69
2022-08-11T20:31:15.452Z,24.63
2022-08-11T20:34:03.656Z,24.54
2022-08-11T20:36:54.841Z,24.44
2022-08-11T20:39:43.160Z,24.36
2022-08-11T20:42:39.940Z,24.27
2022-08-11T20:45:28.966Z,24.19
2022-08-11T20:48:16.189Z,24.06
2022-08-11T20:51:07.585Z,23.94
2022-08-11T20:53:56.527Z,23.89
2022-08-11T20:56:46.604Z,23.87
2022-08-11T20:59:49.381Z,23.86
2022-08-11T21:02:44.517Z,23.76
2022-08-11T21:06:08.573Z,23.67
2022-08-11T21:08:42.815Z,23.64
2022-08-11T21:11:33.459Z,23.64
2022-08-11T21:14:21.055Z,23.61
2022-08-11T21:17:27.566Z,23.62
2022-08-11T21:20:20.450Z,23.60
2022-08-11T21:23:13.113Z,23.59
2022-08-11T21:26:14.635Z,23.63
2022-08-11T21:29:02.263Z,23.63
2022-08-11T21:31:50.128Z,23.64
2022-08-11T21:34:40.116Z,23.58
2022-08-11T21:37:27.917Z,23.46
2022-08-11T21:40:17.488Z,23.35
2022-08-11T21:43:06.765Z,23.30
2022-08-11T21:45:55.553Z,23.35
2022-08-11T21:48:42.408Z,23.36
2022-08-11T21:51:28.961Z,23.34
2022-08-11T21:54:16.769Z,23.31
2022-08-11T21:57:04.091Z,23.23
2022-08-11T22:00:03.686Z,23.16
2022-08-11T22:02:57.245Z,23.08
2022-08-11T22:05:44.215Z,23.00
2022-08-11T22:08:30.629Z,22.94
2022-08-11T22:11:17.199Z,22.88
2022-08-11T22:14:18.376Z,22.84
2022-08-11T22:17:05.775Z,22.78
2022-08-11T22:19:53.237Z,22.73
2022-08-11T22:22:52.333Z,22.69
2022-08-11T22:25:41.783Z,22.66
2022-08-11T22:28:38.368Z,22.64
2022-08-11T22:31:25.456Z,22.63
2022-08-11T22:34:12.956Z,22.60
2022-08-11T22:37:00.318Z,22.52
2022-08-11T22:39:59.556Z,22.52
2022-08-11T22:42:49.438Z,22.54
2022-08-11T22:45:35.545Z,22.56
2022-08-11T22:48:24.315Z,22.61
2022-08-11T22:51:14.119Z,22.61
2022-08-11T22:54:00.210Z,22.56
2022-08-11T22:56:48.462Z,22.57
2022-08-11T22:59:35.433Z,22.59
2022-08-11T23:02:22.230Z,22.60
2022-08-11T23:05:08.685Z,22.54
2022-08-11T23:07:57.785Z,22.48
2022-08-11T23:10:44.808Z,22.42
2022-08-11T23:13:31.673Z,22.39
2022-08-11T23:16:18.315Z,22.34
2022-08-11T23:19:04.628Z,22.30
2022-08-11T23:21:50.795Z,22.25
2022-08-11T23:24:39.626Z,22.23
2022-08-11T23:27:27.539Z,22.22
2022-08-11T23:30:17.092Z,22.17
2022-08-11T23:33:10.361Z,22.12
2022-08-11T23:36:04.535Z,22.05
2022-08-11T23:38:51.962Z,22.00
2022-08-11T23:41:40.038Z,21.98
2022-08-11T23:44:27.592Z,21.89
2022-08-11T23:47:18.088Z,21.85
2022-08-11T23:50:05.677Z,21.82
2022-08-11T23:52:52.482Z,21.77
2022-08-11T23:55:39.007Z,21.73
2022-08-11T23:58:26.849Z,21.74
